ブラジリア の空港の天気 - METARとTAF

ブラジリア国際空港 ( SBBR / BSB ) - ブラジル ブラジリア
飛行場実況気象(Metar)
観測時間05/28 19:00 BRT (05/28 22:00 UTC)
風向・風速南南東 3m/s
視程10km以上
天気現象
なし
気温22℃
湿度46%
気圧1019hPa
METARSBBR 282200Z 16006KT CAVOK 22/10 Q1019
過去の天気等 Google飛行場航空写真 Wunderground天気予報

過去48時間のMETAR

飛行場予報(TAF)
発表時間: 5/28 13:00 BRT (5/28 16:00 UTC)
予報対象時間: 28日15時 BRT ~ 29日15時 BRT
風向・風速北東 3m/s
視程10km以上
全天の4割程度の雲 雲底高度 1220m
28日15時 BRT ~ 28日17時 BRT に徐々に
風向・風速東 4m/s
28日19時 BRT ~ 28日21時 BRT に徐々に
風向・風速東南東 2m/s
視程10km以上
なし
29日9時 BRT ~ 29日11時 BRT に徐々に
風向・風速東 5m/s
全天の4割程度の雲 雲底高度 910m
29日12時 BRT ~ 29日14時 BRT に徐々に
風向・風速北東 3m/s
全天の8割程度の雲 雲底高度 910m
TAF SBBR 281600Z 2818/2918 04005KT 9999 SCT040 TN15/2910Z TX28/2917Z
BECMG 2818/2820 10007KT
BECMG 2822/2824 12004KT CAVOK
BECMG 2912/2914 09010KT SCT030
BECMG 2915/2917 04005KT BKN030 RMK PGQ